sensor_id;sensor_type;location;lat;lon;timestamp;P1;durP1;ratioP1;P2;durP2;ratioP2
79367;SDS011;68834;53.152;17.962;2023-04-25T00:01:51;7.20;;;4.80;;
79367;SDS011;68834;53.152;17.962;2023-04-25T00:04:18;7.80;;;5.10;;
79367;SDS011;68834;53.152;17.962;2023-04-25T00:06:45;6.50;;;5.00;;
79367;SDS011;68834;53.152;17.962;2023-04-25T00:09:12;9.40;;;4.60;;
79367;SDS011;68834;53.152;17.962;2023-04-25T00:11:40;7.10;;;4.70;;
79367;SDS011;68834;53.152;17.962;2023-04-25T00:14:06;7.10;;;5.70;;
79367;SDS011;68834;53.152;17.962;2023-04-25T00:16:34;7.80;;;5.00;;
79367;SDS011;68834;53.152;17.962;2023-04-25T00:19:01;6.80;;;4.80;;
79367;SDS011;68834;53.152;17.962;2023-04-25T00:21:29;13.20;;;5.30;;
79367;SDS011;68834;53.152;17.962;2023-04-25T00:23:57;8.70;;;5.20;;
79367;SDS011;68834;53.152;17.962;2023-04-25T00:26:24;6.80;;;4.90;;
79367;SDS011;68834;53.152;17.962;2023-04-25T00:28:51;7.80;;;5.70;;
79367;SDS011;68834;53.152;17.962;2023-04-25T00:31:18;6.50;;;4.50;;
79367;SDS011;68834;53.152;17.962;2023-04-25T00:33:44;6.70;;;4.70;;
79367;SDS011;68834;53.152;17.962;2023-04-25T00:36:11;6.50;;;5.00;;
79367;SDS011;68834;53.152;17.962;2023-04-25T00:38:37;6.90;;;4.30;;
79367;SDS011;68834;53.152;17.962;2023-04-25T00:41:07;5.60;;;4.60;;
79367;SDS011;68834;53.152;17.962;2023-04-25T00:43:34;5.70;;;4.10;;
79367;SDS011;68834;53.152;17.962;2023-04-25T00:46:03;5.50;;;4.00;;
79367;SDS011;68834;53.152;17.962;2023-04-25T00:48:30;8.60;;;4.40;;
79367;SDS011;68834;53.152;17.962;2023-04-25T00:50:57;6.90;;;4.20;;
79367;SDS011;68834;53.152;17.962;2023-04-25T00:53:26;6.40;;;3.70;;
79367;SDS011;68834;53.152;17.962;2023-04-25T00:55:54;6.40;;;4.00;;
79367;SDS011;68834;53.152;17.962;2023-04-25T00:58:21;4.90;;;3.80;;
79367;SDS011;68834;53.152;17.962;2023-04-25T01:00:49;4.70;;;3.80;;
79367;SDS011;68834;53.152;17.962;2023-04-25T01:03:18;4.00;;;3.40;;
79367;SDS011;68834;53.152;17.962;2023-04-25T01:05:48;6.40;;;4.60;;
79367;SDS011;68834;53.152;17.962;2023-04-25T01:08:15;5.20;;;3.60;;
79367;SDS011;68834;53.152;17.962;2023-04-25T01:10:42;5.00;;;3.80;;
79367;SDS011;68834;53.152;17.962;2023-04-25T01:13:08;4.80;;;3.60;;
79367;SDS011;68834;53.152;17.962;2023-04-25T01:15:35;5.60;;;3.90;;
79367;SDS011;68834;53.152;17.962;2023-04-25T01:18:03;5.00;;;3.90;;
79367;SDS011;68834;53.152;17.962;2023-04-25T01:20:31;5.30;;;4.20;;
79367;SDS011;68834;53.152;17.962;2023-04-25T01:22:59;5.80;;;3.60;;
79367;SDS011;68834;53.152;17.962;2023-04-25T01:25:28;5.70;;;3.80;;
79367;SDS011;68834;53.152;17.962;2023-04-25T01:27:57;5.30;;;4.00;;
79367;SDS011;68834;53.152;17.962;2023-04-25T01:30:28;5.20;;;3.60;;
79367;SDS011;68834;53.152;17.962;2023-04-25T01:32:56;4.00;;;2.90;;
79367;SDS011;68834;53.152;17.962;2023-04-25T01:35:24;6.20;;;4.00;;
79367;SDS011;68834;53.152;17.962;2023-04-25T01:37:53;5.50;;;4.60;;
79367;SDS011;68834;53.152;17.962;2023-04-25T01:40:20;5.80;;;4.20;;
79367;SDS011;68834;53.152;17.962;2023-04-25T01:42:48;4.90;;;3.40;;
79367;SDS011;68834;53.152;17.962;2023-04-25T01:45:15;4.80;;;3.80;;
79367;SDS011;68834;53.152;17.962;2023-04-25T01:47:42;5.10;;;3.60;;
79367;SDS011;68834;53.152;17.962;2023-04-25T01:50:13;6.50;;;3.80;;
79367;SDS011;68834;53.152;17.962;2023-04-25T01:52:39;5.40;;;3.90;;
79367;SDS011;68834;53.152;17.962;2023-04-25T01:55:07;8.10;;;4.00;;
79367;SDS011;68834;53.152;17.962;2023-04-25T01:57:36;5.40;;;4.30;;
79367;SDS011;68834;53.152;17.962;2023-04-25T02:00:04;6.40;;;4.50;;
79367;SDS011;68834;53.152;17.962;2023-04-25T02:02:38;8.20;;;3.90;;
79367;SDS011;68834;53.152;17.962;2023-04-25T02:05:08;5.00;;;3.50;;
79367;SDS011;68834;53.152;17.962;2023-04-25T02:07:38;6.20;;;4.60;;
79367;SDS011;68834;53.152;17.962;2023-04-25T02:10:05;5.80;;;3.90;;
79367;SDS011;68834;53.152;17.962;2023-04-25T02:12:36;5.80;;;4.60;;
79367;SDS011;68834;53.152;17.962;2023-04-25T02:15:38;6.70;;;3.70;;
79367;SDS011;68834;53.152;17.962;2023-04-25T02:18:15;6.20;;;4.90;;
79367;SDS011;68834;53.152;17.962;2023-04-25T02:20:43;5.00;;;4.00;;
79367;SDS011;68834;53.152;17.962;2023-04-25T02:23:10;5.10;;;4.00;;
79367;SDS011;68834;53.152;17.962;2023-04-25T02:25:37;6.70;;;3.70;;
79367;SDS011;68834;53.152;17.962;2023-04-25T02:28:04;5.20;;;3.40;;
79367;SDS011;68834;53.152;17.962;2023-04-25T02:30:30;4.10;;;3.00;;
79367;SDS011;68834;53.152;17.962;2023-04-25T02:32:57;5.00;;;3.40;;
79367;SDS011;68834;53.152;17.962;2023-04-25T02:35:24;7.40;;;4.20;;
79367;SDS011;68834;53.152;17.962;2023-04-25T02:37:54;6.80;;;3.70;;
79367;SDS011;68834;53.152;17.962;2023-04-25T02:40:20;5.00;;;3.40;;
79367;SDS011;68834;53.152;17.962;2023-04-25T02:42:47;4.10;;;2.90;;
79367;SDS011;68834;53.152;17.962;2023-04-25T02:45:14;3.60;;;2.80;;
79367;SDS011;68834;53.152;17.962;2023-04-25T02:47:41;4.10;;;3.10;;
79367;SDS011;68834;53.152;17.962;2023-04-25T02:50:07;5.80;;;4.00;;
79367;SDS011;68834;53.152;17.962;2023-04-25T02:52:34;5.50;;;3.30;;
79367;SDS011;68834;53.152;17.962;2023-04-25T02:55:12;9.30;;;4.00;;
79367;SDS011;68834;53.152;17.962;2023-04-25T02:57:39;5.30;;;3.30;;
79367;SDS011;68834;53.152;17.962;2023-04-25T03:00:06;3.70;;;2.30;;
79367;SDS011;68834;53.152;17.962;2023-04-25T03:02:33;5.00;;;2.70;;
79367;SDS011;68834;53.152;17.962;2023-04-25T03:05:00;3.30;;;2.80;;
79367;SDS011;68834;53.152;17.962;2023-04-25T03:07:27;4.70;;;2.50;;
79367;SDS011;68834;53.152;17.962;2023-04-25T03:09:54;4.40;;;2.60;;
79367;SDS011;68834;53.152;17.962;2023-04-25T03:12:23;5.10;;;2.50;;
79367;SDS011;68834;53.152;17.962;2023-04-25T03:14:49;3.80;;;2.70;;
79367;SDS011;68834;53.152;17.962;2023-04-25T03:17:16;4.20;;;3.00;;
79367;SDS011;68834;53.152;17.962;2023-04-25T03:19:42;3.20;;;2.20;;
79367;SDS011;68834;53.152;17.962;2023-04-25T03:22:09;4.10;;;2.60;;
79367;SDS011;68834;53.152;17.962;2023-04-25T03:24:36;3.80;;;2.40;;
79367;SDS011;68834;53.152;17.962;2023-04-25T03:27:03;5.70;;;2.20;;
79367;SDS011;68834;53.152;17.962;2023-04-25T03:29:30;4.40;;;2.00;;
79367;SDS011;68834;53.152;17.962;2023-04-25T03:31:57;3.90;;;2.20;;
79367;SDS011;68834;53.152;17.962;2023-04-25T03:34:23;4.10;;;2.90;;
79367;SDS011;68834;53.152;17.962;2023-04-25T03:36:50;6.40;;;2.70;;
79367;SDS011;68834;53.152;17.962;2023-04-25T03:39:17;4.20;;;2.70;;
79367;SDS011;68834;53.152;17.962;2023-04-25T03:41:47;4.10;;;2.60;;
79367;SDS011;68834;53.152;17.962;2023-04-25T03:44:14;3.70;;;2.50;;
79367;SDS011;68834;53.152;17.962;2023-04-25T03:46:41;4.50;;;2.50;;
79367;SDS011;68834;53.152;17.962;2023-04-25T03:49:08;3.30;;;2.30;;
79367;SDS011;68834;53.152;17.962;2023-04-25T03:51:51;3.10;;;2.20;;
79367;SDS011;68834;53.152;17.962;2023-04-25T03:54:18;2.90;;;1.90;;
79367;SDS011;68834;53.152;17.962;2023-04-25T03:57:08;2.00;;;1.70;;
79367;SDS011;68834;53.152;17.962;2023-04-25T03:59:37;2.50;;;1.90;;
79367;SDS011;68834;53.152;17.962;2023-04-25T04:02:03;2.90;;;2.30;;
79367;SDS011;68834;53.152;17.962;2023-04-25T04:04:32;2.80;;;2.10;;
79367;SDS011;68834;53.152;17.962;2023-04-25T04:06:59;4.50;;;2.20;;
79367;SDS011;68834;53.152;17.962;2023-04-25T04:09:29;2.70;;;1.90;;
79367;SDS011;68834;53.152;17.962;2023-04-25T04:11:58;3.90;;;2.00;;
79367;SDS011;68834;53.152;17.962;2023-04-25T04:14:24;3.10;;;2.10;;
79367;SDS011;68834;53.152;17.962;2023-04-25T04:16:51;2.60;;;1.70;;
79367;SDS011;68834;53.152;17.962;2023-04-25T04:19:19;2.70;;;1.50;;
79367;SDS011;68834;53.152;17.962;2023-04-25T04:21:52;3.40;;;2.30;;
79367;SDS011;68834;53.152;17.962;2023-04-25T04:24:19;3.70;;;2.30;;
79367;SDS011;68834;53.152;17.962;2023-04-25T04:26:53;2.40;;;1.60;;
79367;SDS011;68834;53.152;17.962;2023-04-25T04:29:33;2.00;;;1.70;;
79367;SDS011;68834;53.152;17.962;2023-04-25T04:32:05;2.10;;;1.60;;
79367;SDS011;68834;53.152;17.962;2023-04-25T04:34:33;3.00;;;1.70;;
79367;SDS011;68834;53.152;17.962;2023-04-25T04:37:00;2.10;;;1.60;;
79367;SDS011;68834;53.152;17.962;2023-04-25T04:39:27;2.40;;;1.80;;
79367;SDS011;68834;53.152;17.962;2023-04-25T04:42:08;2.60;;;1.80;;
79367;SDS011;68834;53.152;17.962;2023-04-25T04:45:04;6.60;;;1.80;;
79367;SDS011;68834;53.152;17.962;2023-04-25T04:47:44;2.40;;;1.90;;
79367;SDS011;68834;53.152;17.962;2023-04-25T04:50:34;2.50;;;2.00;;
79367;SDS011;68834;53.152;17.962;2023-04-25T04:53:22;4.50;;;1.80;;
79367;SDS011;68834;53.152;17.962;2023-04-25T04:56:08;3.60;;;2.90;;
79367;SDS011;68834;53.152;17.962;2023-04-25T04:58:59;2.70;;;1.70;;
79367;SDS011;68834;53.152;17.962;2023-04-25T05:01:37;4.70;;;2.50;;
79367;SDS011;68834;53.152;17.962;2023-04-25T05:04:16;2.50;;;2.10;;
79367;SDS011;68834;53.152;17.962;2023-04-25T05:06:42;6.00;;;1.80;;
79367;SDS011;68834;53.152;17.962;2023-04-25T05:12:22;3.40;;;1.70;;
79367;SDS011;68834;53.152;17.962;2023-04-25T05:15:08;5.20;;;2.30;;
79367;SDS011;68834;53.152;17.962;2023-04-25T05:17:52;3.40;;;2.00;;
79367;SDS011;68834;53.152;17.962;2023-04-25T05:20:37;4.20;;;2.00;;
79367;SDS011;68834;53.152;17.962;2023-04-25T05:23:15;2.70;;;1.90;;
79367;SDS011;68834;53.152;17.962;2023-04-25T05:26:01;3.10;;;1.70;;
79367;SDS011;68834;53.152;17.962;2023-04-25T05:28:45;4.00;;;2.20;;
79367;SDS011;68834;53.152;17.962;2023-04-25T05:31:31;3.30;;;2.20;;
79367;SDS011;68834;53.152;17.962;2023-04-25T05:34:02;2.80;;;1.90;;
79367;SDS011;68834;53.152;17.962;2023-04-25T05:36:40;2.40;;;1.80;;
79367;SDS011;68834;53.152;17.962;2023-04-25T05:39:06;5.30;;;2.10;;
79367;SDS011;68834;53.152;17.962;2023-04-25T05:42:07;3.40;;;2.30;;
79367;SDS011;68834;53.152;17.962;2023-04-25T05:44:57;3.40;;;2.10;;
79367;SDS011;68834;53.152;17.962;2023-04-25T05:47:47;3.30;;;1.90;;
79367;SDS011;68834;53.152;17.962;2023-04-25T05:50:19;4.30;;;2.30;;
79367;SDS011;68834;53.152;17.962;2023-04-25T05:52:51;3.10;;;2.50;;
79367;SDS011;68834;53.152;17.962;2023-04-25T05:55:29;4.50;;;2.70;;
79367;SDS011;68834;53.152;17.962;2023-04-25T05:57:56;4.50;;;2.40;;
79367;SDS011;68834;53.152;17.962;2023-04-25T06:00:24;2.90;;;2.00;;
79367;SDS011;68834;53.152;17.962;2023-04-25T06:02:51;3.70;;;2.20;;
79367;SDS011;68834;53.152;17.962;2023-04-25T06:05:18;4.00;;;2.80;;
79367;SDS011;68834;53.152;17.962;2023-04-25T06:10:12;3.20;;;2.50;;
79367;SDS011;68834;53.152;17.962;2023-04-25T06:12:39;3.30;;;2.30;;
79367;SDS011;68834;53.152;17.962;2023-04-25T06:15:06;3.10;;;2.30;;
79367;SDS011;68834;53.152;17.962;2023-04-25T06:17:33;5.60;;;2.60;;
79367;SDS011;68834;53.152;17.962;2023-04-25T06:20:00;3.50;;;1.90;;
79367;SDS011;68834;53.152;17.962;2023-04-25T06:22:28;2.90;;;1.90;;
79367;SDS011;68834;53.152;17.962;2023-04-25T06:24:56;3.70;;;2.20;;
79367;SDS011;68834;53.152;17.962;2023-04-25T06:27:25;4.10;;;2.60;;
79367;SDS011;68834;53.152;17.962;2023-04-25T06:29:52;4.40;;;2.30;;
79367;SDS011;68834;53.152;17.962;2023-04-25T06:32:18;6.40;;;2.80;;
79367;SDS011;68834;53.152;17.962;2023-04-25T06:34:45;3.60;;;2.30;;
79367;SDS011;68834;53.152;17.962;2023-04-25T06:37:12;6.40;;;2.60;;
79367;SDS011;68834;53.152;17.962;2023-04-25T06:39:39;3.80;;;2.40;;
79367;SDS011;68834;53.152;17.962;2023-04-25T06:42:06;8.50;;;3.00;;
79367;SDS011;68834;53.152;17.962;2023-04-25T06:44:58;4.50;;;3.00;;
79367;SDS011;68834;53.152;17.962;2023-04-25T06:47:24;5.20;;;2.80;;
79367;SDS011;68834;53.152;17.962;2023-04-25T06:49:51;3.50;;;2.70;;
79367;SDS011;68834;53.152;17.962;2023-04-25T06:52:17;5.90;;;2.60;;
79367;SDS011;68834;53.152;17.962;2023-04-25T06:54:45;6.20;;;3.20;;
79367;SDS011;68834;53.152;17.962;2023-04-25T06:57:44;5.00;;;2.40;;
79367;SDS011;68834;53.152;17.962;2023-04-25T07:00:33;6.60;;;4.60;;
79367;SDS011;68834;53.152;17.962;2023-04-25T07:03:00;3.90;;;2.60;;
79367;SDS011;68834;53.152;17.962;2023-04-25T07:05:27;5.20;;;3.00;;
79367;SDS011;68834;53.152;17.962;2023-04-25T07:07:54;6.00;;;4.00;;
79367;SDS011;68834;53.152;17.962;2023-04-25T07:10:20;3.90;;;2.80;;
79367;SDS011;68834;53.152;17.962;2023-04-25T07:12:48;4.00;;;2.50;;
79367;SDS011;68834;53.152;17.962;2023-04-25T07:15:14;5.30;;;2.70;;
79367;SDS011;68834;53.152;17.962;2023-04-25T07:17:42;4.40;;;2.90;;
79367;SDS011;68834;53.152;17.962;2023-04-25T07:20:09;4.40;;;2.80;;
79367;SDS011;68834;53.152;17.962;2023-04-25T07:22:36;3.70;;;3.10;;
79367;SDS011;68834;53.152;17.962;2023-04-25T07:25:03;5.10;;;2.60;;
79367;SDS011;68834;53.152;17.962;2023-04-25T07:27:31;6.40;;;2.80;;
79367;SDS011;68834;53.152;17.962;2023-04-25T07:30:13;4.30;;;2.60;;
79367;SDS011;68834;53.152;17.962;2023-04-25T07:32:39;3.70;;;2.80;;
79367;SDS011;68834;53.152;17.962;2023-04-25T07:35:07;4.80;;;2.40;;
79367;SDS011;68834;53.152;17.962;2023-04-25T07:37:34;3.90;;;2.30;;
79367;SDS011;68834;53.152;17.962;2023-04-25T07:40:16;3.40;;;2.10;;
79367;SDS011;68834;53.152;17.962;2023-04-25T07:42:46;5.80;;;2.60;;
79367;SDS011;68834;53.152;17.962;2023-04-25T07:45:16;3.50;;;2.80;;
79367;SDS011;68834;53.152;17.962;2023-04-25T07:47:43;4.30;;;2.90;;
79367;SDS011;68834;53.152;17.962;2023-04-25T07:50:10;4.00;;;2.60;;
79367;SDS011;68834;53.152;17.962;2023-04-25T07:52:37;3.80;;;2.40;;
79367;SDS011;68834;53.152;17.962;2023-04-25T07:55:13;5.50;;;2.70;;
79367;SDS011;68834;53.152;17.962;2023-04-25T07:57:53;3.30;;;2.60;;
79367;SDS011;68834;53.152;17.962;2023-04-25T08:00:20;6.20;;;3.00;;
79367;SDS011;68834;53.152;17.962;2023-04-25T08:02:47;4.80;;;2.30;;
79367;SDS011;68834;53.152;17.962;2023-04-25T08:05:15;3.40;;;2.70;;
79367;SDS011;68834;53.152;17.962;2023-04-25T08:07:44;6.70;;;2.90;;
79367;SDS011;68834;53.152;17.962;2023-04-25T08:10:11;3.80;;;3.00;;
79367;SDS011;68834;53.152;17.962;2023-04-25T08:12:37;6.10;;;3.80;;
79367;SDS011;68834;53.152;17.962;2023-04-25T08:15:05;6.50;;;3.40;;
79367;SDS011;68834;53.152;17.962;2023-04-25T08:17:34;6.30;;;2.90;;
79367;SDS011;68834;53.152;17.962;2023-04-25T08:20:01;5.30;;;3.20;;
79367;SDS011;68834;53.152;17.962;2023-04-25T08:22:31;5.20;;;3.20;;
79367;SDS011;68834;53.152;17.962;2023-04-25T08:25:14;5.00;;;3.40;;
79367;SDS011;68834;53.152;17.962;2023-04-25T08:27:41;5.80;;;2.90;;
79367;SDS011;68834;53.152;17.962;2023-04-25T08:30:08;3.50;;;2.60;;
79367;SDS011;68834;53.152;17.962;2023-04-25T08:32:35;5.30;;;3.00;;
79367;SDS011;68834;53.152;17.962;2023-04-25T08:35:33;3.70;;;2.50;;
79367;SDS011;68834;53.152;17.962;2023-04-25T08:38:01;5.00;;;3.20;;
79367;SDS011;68834;53.152;17.962;2023-04-25T08:40:27;4.40;;;2.40;;
79367;SDS011;68834;53.152;17.962;2023-04-25T08:43:02;5.10;;;3.20;;
79367;SDS011;68834;53.152;17.962;2023-04-25T08:45:31;4.80;;;2.60;;
79367;SDS011;68834;53.152;17.962;2023-04-25T08:47:59;7.80;;;3.20;;
79367;SDS011;68834;53.152;17.962;2023-04-25T08:50:27;5.40;;;3.50;;
79367;SDS011;68834;53.152;17.962;2023-04-25T08:52:54;4.10;;;3.10;;
79367;SDS011;68834;53.152;17.962;2023-04-25T08:55:28;8.40;;;3.30;;
79367;SDS011;68834;53.152;17.962;2023-04-25T08:57:56;4.30;;;2.90;;
79367;SDS011;68834;53.152;17.962;2023-04-25T09:00:26;4.50;;;2.40;;
79367;SDS011;68834;53.152;17.962;2023-04-25T09:02:53;5.40;;;3.10;;
79367;SDS011;68834;53.152;17.962;2023-04-25T09:05:21;4.90;;;3.70;;
79367;SDS011;68834;53.152;17.962;2023-04-25T09:07:51;4.60;;;2.70;;
79367;SDS011;68834;53.152;17.962;2023-04-25T09:10:18;5.00;;;3.10;;
79367;SDS011;68834;53.152;17.962;2023-04-25T09:12:53;5.80;;;3.30;;
79367;SDS011;68834;53.152;17.962;2023-04-25T09:15:28;3.80;;;3.00;;
79367;SDS011;68834;53.152;17.962;2023-04-25T09:18:28;5.10;;;3.10;;
79367;SDS011;68834;53.152;17.962;2023-04-25T09:21:09;5.70;;;2.00;;
79367;SDS011;68834;53.152;17.962;2023-04-25T09:23:41;4.70;;;3.60;;
79367;SDS011;68834;53.152;17.962;2023-04-25T09:26:13;9.30;;;3.70;;
79367;SDS011;68834;53.152;17.962;2023-04-25T09:28:44;4.30;;;2.10;;
79367;SDS011;68834;53.152;17.962;2023-04-25T09:31:20;4.70;;;3.20;;
79367;SDS011;68834;53.152;17.962;2023-04-25T09:33:49;5.60;;;3.10;;
79367;SDS011;68834;53.152;17.962;2023-04-25T09:36:15;5.30;;;2.80;;
79367;SDS011;68834;53.152;17.962;2023-04-25T09:39:01;4.20;;;2.60;;
79367;SDS011;68834;53.152;17.962;2023-04-25T09:41:33;3.30;;;2.20;;
79367;SDS011;68834;53.152;17.962;2023-04-25T09:44:04;5.10;;;2.90;;
79367;SDS011;68834;53.152;17.962;2023-04-25T09:46:37;2.80;;;2.10;;
79367;SDS011;68834;53.152;17.962;2023-04-25T09:49:08;2.80;;;2.00;;
79367;SDS011;68834;53.152;17.962;2023-04-25T09:51:41;6.50;;;3.00;;
79367;SDS011;68834;53.152;17.962;2023-04-25T09:54:08;5.20;;;3.10;;
79367;SDS011;68834;53.152;17.962;2023-04-25T09:56:39;3.00;;;2.40;;
79367;SDS011;68834;53.152;17.962;2023-04-25T09:59:07;3.80;;;2.50;;
79367;SDS011;68834;53.152;17.962;2023-04-25T10:01:36;3.90;;;2.90;;
79367;SDS011;68834;53.152;17.962;2023-04-25T10:04:10;5.30;;;3.20;;
79367;SDS011;68834;53.152;17.962;2023-04-25T10:06:45;4.50;;;2.50;;
79367;SDS011;68834;53.152;17.962;2023-04-25T10:09:16;2.50;;;1.60;;
79367;SDS011;68834;53.152;17.962;2023-04-25T10:11:44;4.70;;;3.10;;
79367;SDS011;68834;53.152;17.962;2023-04-25T10:14:14;4.80;;;2.70;;
79367;SDS011;68834;53.152;17.962;2023-04-25T10:16:42;3.00;;;2.30;;
79367;SDS011;68834;53.152;17.962;2023-04-25T10:19:09;4.00;;;3.00;;
79367;SDS011;68834;53.152;17.962;2023-04-25T10:21:39;5.50;;;3.00;;
79367;SDS011;68834;53.152;17.962;2023-04-25T10:24:16;4.80;;;3.00;;
79367;SDS011;68834;53.152;17.962;2023-04-25T10:26:43;3.40;;;2.00;;
79367;SDS011;68834;53.152;17.962;2023-04-25T10:29:10;4.10;;;2.80;;
79367;SDS011;68834;53.152;17.962;2023-04-25T10:31:44;7.80;;;3.20;;
79367;SDS011;68834;53.152;17.962;2023-04-25T10:34:13;2.70;;;2.30;;
79367;SDS011;68834;53.152;17.962;2023-04-25T10:36:40;1.80;;;1.40;;
79367;SDS011;68834;53.152;17.962;2023-04-25T10:39:06;6.00;;;2.50;;
79367;SDS011;68834;53.152;17.962;2023-04-25T10:41:48;3.50;;;3.10;;
79367;SDS011;68834;53.152;17.962;2023-04-25T10:44:19;7.00;;;3.70;;
79367;SDS011;68834;53.152;17.962;2023-04-25T10:46:46;4.90;;;3.00;;
79367;SDS011;68834;53.152;17.962;2023-04-25T10:49:28;2.60;;;1.90;;
79367;SDS011;68834;53.152;17.962;2023-04-25T10:54:52;5.10;;;3.10;;
79367;SDS011;68834;53.152;17.962;2023-04-25T11:00:07;5.00;;;2.50;;
79367;SDS011;68834;53.152;17.962;2023-04-25T11:02:47;5.00;;;2.80;;
79367;SDS011;68834;53.152;17.962;2023-04-25T11:05:33;4.40;;;2.60;;
79367;SDS011;68834;53.152;17.962;2023-04-25T11:08:10;5.70;;;2.90;;
79367;SDS011;68834;53.152;17.962;2023-04-25T11:10:38;5.00;;;2.80;;
79367;SDS011;68834;53.152;17.962;2023-04-25T11:13:06;4.20;;;2.70;;
79367;SDS011;68834;53.152;17.962;2023-04-25T11:15:33;4.20;;;2.50;;
79367;SDS011;68834;53.152;17.962;2023-04-25T11:17:59;3.70;;;2.90;;
79367;SDS011;68834;53.152;17.962;2023-04-25T11:20:26;3.70;;;2.20;;
79367;SDS011;68834;53.152;17.962;2023-04-25T11:22:56;4.30;;;2.40;;
79367;SDS011;68834;53.152;17.962;2023-04-25T11:25:25;3.80;;;2.70;;
79367;SDS011;68834;53.152;17.962;2023-04-25T11:27:58;3.60;;;2.40;;
79367;SDS011;68834;53.152;17.962;2023-04-25T11:30:27;7.50;;;3.10;;
79367;SDS011;68834;53.152;17.962;2023-04-25T11:32:56;5.20;;;3.20;;
79367;SDS011;68834;53.152;17.962;2023-04-25T11:35:23;4.30;;;3.00;;
79367;SDS011;68834;53.152;17.962;2023-04-25T11:37:51;4.10;;;2.50;;
79367;SDS011;68834;53.152;17.962;2023-04-25T11:40:18;5.30;;;2.40;;
79367;SDS011;68834;53.152;17.962;2023-04-25T11:42:46;4.40;;;2.70;;
79367;SDS011;68834;53.152;17.962;2023-04-25T11:45:13;4.30;;;2.80;;
79367;SDS011;68834;53.152;17.962;2023-04-25T11:47:41;4.00;;;2.60;;
79367;SDS011;68834;53.152;17.962;2023-04-25T11:50:08;7.80;;;3.20;;
79367;SDS011;68834;53.152;17.962;2023-04-25T11:52:42;5.20;;;3.10;;
79367;SDS011;68834;53.152;17.962;2023-04-25T11:57:41;6.70;;;3.00;;
79367;SDS011;68834;53.152;17.962;2023-04-25T12:00:12;5.10;;;2.40;;
79367;SDS011;68834;53.152;17.962;2023-04-25T12:05:10;4.40;;;2.40;;
79367;SDS011;68834;53.152;17.962;2023-04-25T12:07:38;6.60;;;2.00;;
79367;SDS011;68834;53.152;17.962;2023-04-25T12:10:06;4.80;;;2.40;;
79367;SDS011;68834;53.152;17.962;2023-04-25T12:12:34;4.50;;;2.70;;
79367;SDS011;68834;53.152;17.962;2023-04-25T12:15:08;4.50;;;2.40;;
79367;SDS011;68834;53.152;17.962;2023-04-25T12:17:38;4.10;;;2.50;;
79367;SDS011;68834;53.152;17.962;2023-04-25T12:20:06;4.10;;;2.00;;
79367;SDS011;68834;53.152;17.962;2023-04-25T12:22:34;6.40;;;2.70;;
79367;SDS011;68834;53.152;17.962;2023-04-25T12:25:03;4.60;;;2.70;;
79367;SDS011;68834;53.152;17.962;2023-04-25T12:27:31;3.00;;;2.20;;
79367;SDS011;68834;53.152;17.962;2023-04-25T12:29:57;4.10;;;2.50;;
79367;SDS011;68834;53.152;17.962;2023-04-25T12:32:24;4.10;;;2.40;;
79367;SDS011;68834;53.152;17.962;2023-04-25T12:34:52;2.90;;;2.50;;
79367;SDS011;68834;53.152;17.962;2023-04-25T12:37:19;4.50;;;2.90;;
79367;SDS011;68834;53.152;17.962;2023-04-25T12:39:45;2.90;;;2.40;;
79367;SDS011;68834;53.152;17.962;2023-04-25T12:42:12;5.50;;;2.50;;
79367;SDS011;68834;53.152;17.962;2023-04-25T12:44:39;4.10;;;2.40;;
79367;SDS011;68834;53.152;17.962;2023-04-25T12:47:06;6.10;;;2.30;;
79367;SDS011;68834;53.152;17.962;2023-04-25T12:49:33;3.80;;;2.50;;
79367;SDS011;68834;53.152;17.962;2023-04-25T12:52:00;3.00;;;2.30;;
79367;SDS011;68834;53.152;17.962;2023-04-25T12:54:26;4.40;;;2.40;;
79367;SDS011;68834;53.152;17.962;2023-04-25T12:56:53;2.90;;;2.10;;
79367;SDS011;68834;53.152;17.962;2023-04-25T12:59:21;4.70;;;2.50;;
79367;SDS011;68834;53.152;17.962;2023-04-25T13:01:47;4.60;;;2.10;;
79367;SDS011;68834;53.152;17.962;2023-04-25T13:04:14;3.80;;;2.20;;
79367;SDS011;68834;53.152;17.962;2023-04-25T13:06:41;3.10;;;2.30;;
79367;SDS011;68834;53.152;17.962;2023-04-25T13:09:08;3.80;;;2.30;;
79367;SDS011;68834;53.152;17.962;2023-04-25T13:11:35;4.10;;;2.90;;
79367;SDS011;68834;53.152;17.962;2023-04-25T13:14:01;5.20;;;2.60;;
79367;SDS011;68834;53.152;17.962;2023-04-25T13:16:28;4.10;;;2.50;;
79367;SDS011;68834;53.152;17.962;2023-04-25T13:18:55;3.30;;;2.40;;
79367;SDS011;68834;53.152;17.962;2023-04-25T13:21:22;7.10;;;3.00;;
79367;SDS011;68834;53.152;17.962;2023-04-25T13:23:49;5.50;;;2.90;;
79367;SDS011;68834;53.152;17.962;2023-04-25T13:26:16;5.30;;;3.40;;
79367;SDS011;68834;53.152;17.962;2023-04-25T13:28:43;5.90;;;3.10;;
79367;SDS011;68834;53.152;17.962;2023-04-25T13:31:10;7.00;;;3.40;;
79367;SDS011;68834;53.152;17.962;2023-04-25T13:33:36;9.00;;;3.50;;
79367;SDS011;68834;53.152;17.962;2023-04-25T13:36:03;5.50;;;3.40;;
79367;SDS011;68834;53.152;17.962;2023-04-25T13:38:30;4.20;;;2.90;;
79367;SDS011;68834;53.152;17.962;2023-04-25T13:40:56;6.40;;;3.10;;
79367;SDS011;68834;53.152;17.962;2023-04-25T13:43:23;4.80;;;2.50;;
79367;SDS011;68834;53.152;17.962;2023-04-25T13:45:50;4.40;;;2.70;;
79367;SDS011;68834;53.152;17.962;2023-04-25T13:48:17;5.90;;;2.70;;
79367;SDS011;68834;53.152;17.962;2023-04-25T13:50:46;10.70;;;3.00;;
79367;SDS011;68834;53.152;17.962;2023-04-25T13:53:12;4.30;;;2.70;;
79367;SDS011;68834;53.152;17.962;2023-04-25T13:55:39;3.60;;;2.70;;
79367;SDS011;68834;53.152;17.962;2023-04-25T13:58:06;4.40;;;2.90;;
79367;SDS011;68834;53.152;17.962;2023-04-25T14:00:35;4.90;;;2.90;;
79367;SDS011;68834;53.152;17.962;2023-04-25T14:03:05;5.40;;;3.10;;
79367;SDS011;68834;53.152;17.962;2023-04-25T14:05:34;6.80;;;2.80;;
79367;SDS011;68834;53.152;17.962;2023-04-25T14:08:07;4.60;;;2.80;;
79367;SDS011;68834;53.152;17.962;2023-04-25T14:10:35;3.00;;;2.30;;
79367;SDS011;68834;53.152;17.962;2023-04-25T14:13:04;5.70;;;2.80;;
79367;SDS011;68834;53.152;17.962;2023-04-25T14:15:31;3.80;;;2.40;;
79367;SDS011;68834;53.152;17.962;2023-04-25T14:17:58;3.60;;;2.00;;
79367;SDS011;68834;53.152;17.962;2023-04-25T14:20:26;3.50;;;1.70;;
79367;SDS011;68834;53.152;17.962;2023-04-25T14:22:53;2.90;;;1.80;;
79367;SDS011;68834;53.152;17.962;2023-04-25T14:25:22;2.00;;;1.70;;
79367;SDS011;68834;53.152;17.962;2023-04-25T14:27:49;3.50;;;1.70;;
79367;SDS011;68834;53.152;17.962;2023-04-25T14:30:16;3.30;;;1.60;;
79367;SDS011;68834;53.152;17.962;2023-04-25T14:32:47;2.50;;;1.50;;
79367;SDS011;68834;53.152;17.962;2023-04-25T14:35:15;2.70;;;1.70;;
79367;SDS011;68834;53.152;17.962;2023-04-25T14:37:42;2.10;;;1.60;;
79367;SDS011;68834;53.152;17.962;2023-04-25T14:40:09;2.00;;;1.50;;
79367;SDS011;68834;53.152;17.962;2023-04-25T14:45:04;2.60;;;2.00;;
79367;SDS011;68834;53.152;17.962;2023-04-25T14:47:33;4.30;;;1.90;;
79367;SDS011;68834;53.152;17.962;2023-04-25T14:50:01;5.30;;;2.80;;
79367;SDS011;68834;53.152;17.962;2023-04-25T14:52:28;3.30;;;2.10;;
79367;SDS011;68834;53.152;17.962;2023-04-25T14:54:55;2.80;;;1.80;;
79367;SDS011;68834;53.152;17.962;2023-04-25T14:57:21;2.90;;;2.00;;
79367;SDS011;68834;53.152;17.962;2023-04-25T14:59:48;4.70;;;2.00;;
79367;SDS011;68834;53.152;17.962;2023-04-25T15:02:14;2.40;;;2.00;;
79367;SDS011;68834;53.152;17.962;2023-04-25T15:04:41;3.00;;;2.00;;
79367;SDS011;68834;53.152;17.962;2023-04-25T15:07:08;3.00;;;1.90;;
79367;SDS011;68834;53.152;17.962;2023-04-25T15:09:35;4.00;;;2.00;;